createdAt,value
2023-05-15T00:02:34.217Z,101158.00
2023-05-15T00:07:31.501Z,101168.59
2023-05-15T00:12:28.525Z,101235.72
2023-05-15T00:17:26.467Z,101209.66
2023-05-15T00:22:23.513Z,101153.44
2023-05-15T00:27:20.447Z,101126.06
2023-05-15T00:32:17.247Z,101172.66
2023-05-15T00:37:15.588Z,101127.03
2023-05-15T00:42:13.361Z,101158.19
2023-05-15T00:47:10.878Z,101035.53
2023-05-15T00:52:08.164Z,101137.63
2023-05-15T00:57:06.771Z,101101.19
2023-05-15T01:02:04.077Z,101102.06
2023-05-15T01:07:01.516Z,101104.00
2023-05-15T01:12:00.536Z,101078.34
2023-05-15T01:16:58.079Z,101110.16
2023-05-15T01:22:25.448Z,101078.91
2023-05-15T01:27:30.165Z,101055.50
2023-05-15T01:32:34.211Z,101043.59
2023-05-15T01:37:34.402Z,101075.84
2023-05-15T01:42:34.726Z,101050.22
2023-05-15T01:47:36.979Z,101071.41
2023-05-15T01:52:36.846Z,101080.41
2023-05-15T01:57:35.848Z,101086.78
2023-05-15T02:02:33.350Z,101105.25
2023-05-15T02:07:32.598Z,101089.66
2023-05-15T02:12:31.646Z,101117.66
2023-05-15T02:17:29.221Z,101115.09
2023-05-15T02:22:25.998Z,101089.44
2023-05-15T02:27:26.608Z,101124.03
2023-05-15T02:32:33.518Z,101180.59
2023-05-15T02:37:33.564Z,101171.84
2023-05-15T02:42:31.849Z,101073.44
2023-05-15T02:47:30.926Z,101078.28
2023-05-15T02:52:27.847Z,101080.09
2023-05-15T02:57:24.777Z,101089.44
2023-05-15T03:02:21.517Z,101115.38
2023-05-15T03:07:19.173Z,101105.19
2023-05-15T03:12:16.629Z,101098.81
2023-05-15T03:17:13.464Z,101047.72
2023-05-15T03:22:10.367Z,101086.44
2023-05-15T03:27:08.402Z,101058.22
2023-05-15T03:32:05.777Z,101055.47
2023-05-15T03:37:03.022Z,101051.06
2023-05-15T03:41:59.839Z,101054.06
2023-05-15T03:46:57.348Z,101058.34
2023-05-15T03:51:54.327Z,101068.28
2023-05-15T03:56:51.172Z,101078.47
2023-05-15T04:02:02.930Z,101087.16
2023-05-15T04:07:03.098Z,101049.03
2023-05-15T04:11:59.914Z,101087.09
2023-05-15T04:17:05.209Z,101053.69
2023-05-15T04:22:02.513Z,101129.66
2023-05-15T04:26:59.324Z,101112.97
2023-05-15T04:32:33.358Z,101111.50
2023-05-15T04:37:44.882Z,101049.66
2023-05-15T04:42:42.721Z,101082.75
2023-05-15T04:47:39.542Z,101125.19
2023-05-15T04:53:10.044Z,101028.25
2023-05-15T04:58:11.363Z,101132.81
2023-05-15T05:03:08.260Z,101099.47
2023-05-15T05:08:08.177Z,101101.41
2023-05-15T05:13:22.816Z,101085.16
2023-05-15T05:18:34.570Z,101030.13
2023-05-15T05:23:35.566Z,101089.41
2023-05-15T05:28:35.724Z,101079.19
2023-05-15T05:33:32.614Z,101054.50
2023-05-15T05:38:43.962Z,101061.88
2023-05-15T05:44:00.214Z,100997.22
2023-05-15T05:48:59.298Z,101071.38
2023-05-15T05:53:56.177Z,101074.38
2023-05-15T05:58:53.759Z,101033.19
2023-05-15T06:04:22.896Z,101052.25
2023-05-15T06:09:25.914Z,101068.13
2023-05-15T06:14:23.649Z,101065.66
2023-05-15T06:19:21.223Z,101090.00
2023-05-15T06:24:32.853Z,101040.41
2023-05-15T06:29:40.421Z,101087.69
2023-05-15T06:34:43.026Z,101069.06
2023-05-15T06:40:09.103Z,101085.53
2023-05-15T06:45:08.194Z,101100.53
2023-05-15T06:50:07.393Z,101082.31
2023-05-15T06:55:05.930Z,101053.50
2023-05-15T07:00:26.877Z,101020.91
2023-05-15T07:05:40.472Z,101009.34
2023-05-15T07:10:37.315Z,101022.66
2023-05-15T07:15:35.177Z,101028.69
2023-05-15T07:20:34.286Z,101040.66
2023-05-15T07:25:34.380Z,101019.97
2023-05-15T07:30:32.990Z,101010.94
2023-05-15T07:35:30.633Z,101042.22
2023-05-15T07:40:30.277Z,101064.88
2023-05-15T07:46:00.981Z,101041.09
2023-05-15T07:51:01.829Z,101022.31
2023-05-15T07:55:59.919Z,101082.50
2023-05-15T08:01:00.838Z,101072.25
2023-05-15T08:06:26.778Z,101015.66
2023-05-15T08:11:23.643Z,101076.88
2023-05-15T08:16:20.415Z,101037.75
2023-05-15T08:21:17.968Z,101050.53
2023-05-15T08:26:15.752Z,101027.13
2023-05-15T08:31:12.688Z,101030.09
2023-05-15T08:36:27.757Z,101006.25
2023-05-15T08:46:36.334Z,101002.16
2023-05-15T08:51:43.960Z,100991.09
2023-05-15T08:57:10.839Z,100948.31
2023-05-15T09:02:11.622Z,100996.50
2023-05-15T09:07:10.728Z,100970.75
2023-05-15T09:12:14.083Z,101000.13
2023-05-15T09:17:11.188Z,100974.81
2023-05-15T09:22:16.313Z,100944.03
2023-05-15T09:27:14.083Z,100995.22
2023-05-15T09:32:21.185Z,101006.31
2023-05-15T09:37:33.267Z,101014.47
2023-05-15T09:42:54.872Z,100984.94
2023-05-15T09:47:54.759Z,101000.94
2023-05-15T09:53:02.135Z,100951.84
2023-05-15T09:58:26.892Z,100925.94
2023-05-15T10:03:24.770Z,100981.91
2023-05-15T10:08:27.009Z,100993.41
2023-05-15T10:13:29.822Z,100972.72
2023-05-15T10:18:30.241Z,100966.28
2023-05-15T10:23:29.159Z,100960.91
2023-05-15T10:28:28.329Z,100934.94
2023-05-15T10:33:26.478Z,100953.28
2023-05-15T10:38:24.914Z,100913.19
2023-05-15T10:43:46.080Z,100909.44
2023-05-15T10:48:45.749Z,100922.00
2023-05-15T10:53:43.341Z,100915.41
2023-05-15T10:58:46.652Z,100927.22
2023-05-15T11:03:49.474Z,100926.03
2023-05-15T11:08:47.836Z,100940.13
2023-05-15T11:14:16.859Z,100937.88
2023-05-15T11:19:23.284Z,100896.72
2023-05-15T11:24:21.794Z,100918.44
2023-05-15T11:29:19.143Z,100946.19
2023-05-15T11:34:28.465Z,100943.50
2023-05-15T11:39:26.396Z,100932.22
2023-05-15T11:44:24.242Z,100946.00
2023-05-15T11:49:22.628Z,100909.50
2023-05-15T11:54:20.705Z,100933.09
2023-05-15T11:59:21.554Z,100900.66
2023-05-15T12:04:19.549Z,100925.84
2023-05-15T12:09:19.375Z,100895.75
2023-05-15T12:14:16.463Z,100916.16
2023-05-15T12:19:15.229Z,100904.66
2023-05-15T12:24:27.680Z,100868.28
2023-05-15T12:29:28.859Z,100888.88
2023-05-15T12:34:37.692Z,100893.72
2023-05-15T12:39:35.653Z,100906.25
2023-05-15T12:44:34.414Z,100865.38
2023-05-15T12:49:35.764Z,100892.31
2023-05-15T12:54:43.697Z,100881.22
2023-05-15T13:00:02.537Z,100853.75
2023-05-15T13:05:05.360Z,100887.28
2023-05-15T13:10:04.645Z,100874.78
2023-05-15T13:15:04.977Z,100872.53
2023-05-15T13:20:14.654Z,100837.91
2023-05-15T13:25:11.866Z,100788.72
2023-05-15T13:30:10.596Z,100872.94
2023-05-15T13:35:09.762Z,100815.97
2023-05-15T13:40:09.832Z,100833.09
2023-05-15T13:45:08.909Z,100871.03
2023-05-15T13:50:09.844Z,100882.19
2023-05-15T13:55:10.895Z,100870.91
2023-05-15T14:00:11.542Z,100887.56
2023-05-15T14:05:08.996Z,100835.25
2023-05-15T14:10:07.966Z,100881.13
2023-05-15T14:15:05.839Z,100840.09
2023-05-15T14:20:09.466Z,100837.56
2023-05-15T14:25:08.912Z,100885.75
2023-05-15T14:30:09.973Z,100865.56
2023-05-15T14:35:07.267Z,100885.03
2023-05-15T14:40:06.420Z,100854.19
2023-05-15T14:45:07.921Z,100861.06
2023-05-15T14:50:05.419Z,100881.78
2023-05-15T15:00:05.681Z,100836.13
2023-05-15T15:05:07.405Z,100884.22
2023-05-15T15:10:05.130Z,100842.44
2023-05-15T15:15:04.885Z,100871.06
2023-05-15T15:20:06.489Z,100838.41
2023-05-15T15:25:05.314Z,100851.63
2023-05-15T15:30:04.084Z,100788.47
2023-05-15T15:35:03.327Z,100845.19
2023-05-15T15:40:02.432Z,100798.78
2023-05-15T15:44:59.917Z,100811.56
2023-05-15T15:49:56.691Z,100843.56
2023-05-15T15:54:53.909Z,100860.22
2023-05-15T15:59:52.318Z,100796.34
2023-05-15T16:04:49.958Z,100855.38
2023-05-15T16:09:51.404Z,100842.75
2023-05-15T16:15:06.861Z,100776.81
2023-05-15T16:20:11.806Z,100879.94
2023-05-15T16:25:09.092Z,100900.47
2023-05-15T16:30:08.657Z,100902.16
2023-05-15T16:35:07.106Z,100915.91
2023-05-15T16:40:04.587Z,100917.13
2023-05-15T16:45:01.425Z,100874.28
2023-05-15T16:49:59.039Z,100830.72
2023-05-15T16:54:55.856Z,100819.47
2023-05-15T16:59:55.373Z,100814.94
2023-05-15T17:04:52.712Z,100835.88
2023-05-15T17:09:50.451Z,100876.31
2023-05-15T17:14:47.298Z,100868.06
2023-05-15T17:19:44.160Z,100890.44
2023-05-15T17:24:50.732Z,100901.53
2023-05-15T17:29:49.369Z,100886.91
2023-05-15T17:34:46.768Z,100881.69
2023-05-15T17:39:43.667Z,100850.22
2023-05-15T17:44:40.457Z,100871.84
2023-05-15T17:49:38.399Z,100862.72
2023-05-15T17:54:35.284Z,100862.84
2023-05-15T17:59:32.395Z,100883.66
2023-05-15T18:04:29.290Z,100861.25
2023-05-15T18:09:31.090Z,100880.34
2023-05-15T18:14:27.947Z,100878.88
2023-05-15T18:19:25.040Z,100834.66
2023-05-15T18:24:22.047Z,100858.38
2023-05-15T18:29:19.684Z,100836.94
2023-05-15T18:34:16.643Z,100835.44
2023-05-15T18:39:14.905Z,100856.56
2023-05-15T18:44:11.677Z,100884.94
2023-05-15T18:49:09.306Z,100886.22
2023-05-15T18:54:06.486Z,100868.56
2023-05-15T18:59:03.292Z,100815.59
2023-05-15T19:04:00.264Z,100881.09
2023-05-15T19:08:57.938Z,100868.63
2023-05-15T19:13:54.820Z,100867.38
2023-05-15T19:18:51.685Z,100887.50
2023-05-15T19:23:50.467Z,100878.56
2023-05-15T19:28:47.962Z,100865.44
2023-05-15T19:33:45.163Z,100838.59
2023-05-15T19:38:42.541Z,100924.81
2023-05-15T19:43:39.390Z,100865.28
2023-05-15T19:48:37.048Z,100923.47
2023-05-15T19:53:33.815Z,100906.78
2023-05-15T19:58:31.273Z,100905.16
2023-05-15T20:03:32.158Z,100910.09
2023-05-15T20:08:29.974Z,100907.34
2023-05-15T20:13:27.344Z,100939.63
2023-05-15T20:18:24.339Z,100934.56
2023-05-15T20:23:21.595Z,100931.44
2023-05-15T20:28:19.365Z,100922.06
2023-05-15T20:33:16.530Z,100937.06
2023-05-15T20:38:13.924Z,100940.13
2023-05-15T20:43:10.965Z,100912.91
2023-05-15T20:48:10.352Z,100951.63
2023-05-15T20:53:07.591Z,100950.56
2023-05-15T20:58:04.453Z,100957.00
2023-05-15T21:03:01.640Z,100918.31
2023-05-15T21:07:59.354Z,100903.19
2023-05-15T21:12:59.014Z,100918.53
2023-05-15T21:17:56.403Z,100947.31
2023-05-15T21:22:53.205Z,100943.53
2023-05-15T21:27:50.770Z,100954.50
2023-05-15T21:32:47.707Z,100956.66
2023-05-15T21:37:44.719Z,100927.59
2023-05-15T21:42:42.445Z,100942.06
2023-05-15T21:47:40.083Z,100946.00
2023-05-15T21:52:36.981Z,100935.66
2023-05-15T21:57:33.840Z,100938.31
2023-05-15T22:02:30.700Z,100913.56
2023-05-15T22:07:28.183Z,100924.94
2023-05-15T22:12:24.951Z,100908.63
2023-05-15T22:17:23.413Z,100874.47
2023-05-15T22:22:20.736Z,100854.31
2023-05-15T22:27:18.306Z,100852.53
2023-05-15T22:32:15.064Z,100875.75
2023-05-15T22:37:12.418Z,100867.19
2023-05-15T22:42:09.298Z,100868.19
2023-05-15T22:47:07.097Z,100872.09
2023-05-15T22:52:04.338Z,100855.44
2023-05-15T22:57:01.097Z,100851.03
2023-05-15T23:01:58.168Z,100839.34
2023-05-15T23:06:55.722Z,100806.00
2023-05-15T23:11:52.453Z,100860.81
2023-05-15T23:16:49.416Z,100862.16
2023-05-15T23:21:46.258Z,100851.56
2023-05-15T23:26:43.963Z,100846.34
2023-05-15T23:31:42.332Z,100827.81
2023-05-15T23:36:39.270Z,100821.59
2023-05-15T23:41:36.048Z,100792.50
2023-05-15T23:46:34.869Z,100760.47
2023-05-15T23:51:31.864Z,100811.69
2023-05-15T23:56:28.682Z,100775.53
